sensor_id;sensor_type;location;lat;lon;timestamp;pressure;altitude;pressure_sealevel;temperature;humidity
23574;BME280;11965;53.640;10.050;2022-09-03T00:02:18;101602.94;;;16.87;51.47
23574;BME280;11965;53.640;10.050;2022-09-03T00:04:52;101595.44;;;16.87;51.96
23574;BME280;11965;53.640;10.050;2022-09-03T00:07:43;101600.34;;;16.98;51.49
23574;BME280;11965;53.640;10.050;2022-09-03T00:10:20;101594.53;;;16.87;51.57
23574;BME280;11965;53.640;10.050;2022-09-03T00:12:50;101599.50;;;16.78;52.29
23574;BME280;11965;53.640;10.050;2022-09-03T00:15:19;101598.22;;;16.87;51.66
23574;BME280;11965;53.640;10.050;2022-09-03T00:17:56;101593.25;;;16.89;51.62
23574;BME280;11965;53.640;10.050;2022-09-03T00:20:32;101596.03;;;16.89;51.87
23574;BME280;11965;53.640;10.050;2022-09-03T00:23:04;101599.28;;;16.86;51.72
23574;BME280;11965;53.640;10.050;2022-09-03T00:25:38;101600.16;;;16.80;51.99
23574;BME280;11965;53.640;10.050;2022-09-03T00:28:13;101599.72;;;16.83;52.33
23574;BME280;11965;53.640;10.050;2022-09-03T00:30:41;101598.44;;;16.86;51.78
23574;BME280;11965;53.640;10.050;2022-09-03T00:33:16;101601.88;;;16.88;52.04
23574;BME280;11965;53.640;10.050;2022-09-03T00:36:01;101598.22;;;16.81;52.38
23574;BME280;11965;53.640;10.050;2022-09-03T00:38:29;101597.97;;;16.75;52.04
23574;BME280;11965;53.640;10.050;2022-09-03T00:46:08;101590.47;;;16.69;53.12
23574;BME280;11965;53.640;10.050;2022-09-03T00:48:50;101600.34;;;16.65;52.65
23574;BME280;11965;53.640;10.050;2022-09-03T00:54:47;101597.56;;;16.52;53.48
23574;BME280;11965;53.640;10.050;2022-09-03T00:56:59;101607.91;;;16.51;52.84
23574;BME280;11965;53.640;10.050;2022-09-03T00:59:38;101598.00;;;16.49;53.39
23574;BME280;11965;53.640;10.050;2022-09-03T01:02:23;101608.13;;;16.50;53.21
23574;BME280;11965;53.640;10.050;2022-09-03T01:13:32;101601.47;;;16.44;53.63
23574;BME280;11965;53.640;10.050;2022-09-03T01:16:26;101603.38;;;16.50;53.41
23574;BME280;11965;53.640;10.050;2022-09-03T01:27:31;101599.72;;;16.63;52.24
23574;BME280;11965;53.640;10.050;2022-09-03T01:32:39;101586.59;;;16.64;52.33
23574;BME280;11965;53.640;10.050;2022-09-03T01:35:38;101585.72;;;16.70;52.32
23574;BME280;11965;53.640;10.050;2022-09-03T01:38:13;101577.97;;;16.65;52.15
23574;BME280;11965;53.640;10.050;2022-09-03T01:40:50;101595.84;;;16.57;52.42
23574;BME280;11965;53.640;10.050;2022-09-03T01:45:57;101589.84;;;16.47;52.40
23574;BME280;11965;53.640;10.050;2022-09-03T01:51:20;101590.91;;;16.53;53.02
23574;BME280;11965;53.640;10.050;2022-09-03T01:59:58;101585.75;;;16.23;53.01
23574;BME280;11965;53.640;10.050;2022-09-03T02:02:37;101579.72;;;16.13;53.73
23574;BME280;11965;53.640;10.050;2022-09-03T02:07:40;101580.13;;;16.17;53.65
23574;BME280;11965;53.640;10.050;2022-09-03T02:10:10;101584.00;;;16.16;53.32
23574;BME280;11965;53.640;10.050;2022-09-03T02:12:38;101588.31;;;16.18;53.19
23574;BME280;11965;53.640;10.050;2022-09-03T02:15:11;101588.53;;;16.23;53.24
23574;BME280;11965;53.640;10.050;2022-09-03T02:17:37;101588.75;;;16.15;53.69
23574;BME280;11965;53.640;10.050;2022-09-03T02:20:07;101581.84;;;16.04;54.03
23574;BME280;11965;53.640;10.050;2022-09-03T02:22:39;101584.66;;;16.04;54.35
23574;BME280;11965;53.640;10.050;2022-09-03T02:25:06;101585.06;;;16.08;54.03
23574;BME280;11965;53.640;10.050;2022-09-03T02:27:32;101588.94;;;16.00;53.87
23574;BME280;11965;53.640;10.050;2022-09-03T02:29:58;101585.06;;;16.08;53.89
23574;BME280;11965;53.640;10.050;2022-09-03T02:32:24;101577.09;;;15.92;54.58
23574;BME280;11965;53.640;10.050;2022-09-03T02:34:51;101581.41;;;15.94;54.44
23574;BME280;11965;53.640;10.050;2022-09-03T02:37:17;101588.91;;;15.87;53.95
23574;BME280;11965;53.640;10.050;2022-09-03T02:39:44;101582.06;;;15.96;54.38
23574;BME280;11965;53.640;10.050;2022-09-03T02:42:11;101585.69;;;15.83;54.85
23574;BME280;11965;53.640;10.050;2022-09-03T02:44:40;101585.69;;;15.83;54.94
23574;BME280;11965;53.640;10.050;2022-09-03T02:47:08;101595.13;;;15.69;54.89
23574;BME280;11965;53.640;10.050;2022-09-03T02:49:33;101591.81;;;15.65;55.36
23574;BME280;11965;53.640;10.050;2022-09-03T02:52:04;101586.31;;;15.72;55.24
23574;BME280;11965;53.640;10.050;2022-09-03T02:54:35;101594.03;;;15.77;55.23
23574;BME280;11965;53.640;10.050;2022-09-03T02:57:08;101592.56;;;15.81;55.33
23574;BME280;11965;53.640;10.050;2022-09-03T02:59:35;101593.19;;;15.76;55.50
23574;BME280;11965;53.640;10.050;2022-09-03T03:02:02;101589.03;;;15.65;55.10
23574;BME280;11965;53.640;10.050;2022-09-03T03:04:29;101595.47;;;15.66;55.94
23574;BME280;11965;53.640;10.050;2022-09-03T03:06:55;101587.72;;;15.55;56.25
23574;BME280;11965;53.640;10.050;2022-09-03T03:09:21;101584.69;;;15.50;56.10
23574;BME280;11965;53.640;10.050;2022-09-03T03:11:47;101596.50;;;15.52;56.29
23574;BME280;11965;53.640;10.050;2022-09-03T03:14:15;101582.09;;;15.48;56.58
23574;BME280;11965;53.640;10.050;2022-09-03T03:16:40;101584.44;;;15.44;56.39
23574;BME280;11965;53.640;10.050;2022-09-03T03:19:06;101580.31;;;15.34;56.39
23574;BME280;11965;53.640;10.050;2022-09-03T03:21:31;101577.75;;;15.39;56.32
23574;BME280;11965;53.640;10.050;2022-09-03T03:23:57;101579.47;;;15.33;56.42
23574;BME280;11965;53.640;10.050;2022-09-03T03:26:22;101585.28;;;15.32;57.16
23574;BME280;11965;53.640;10.050;2022-09-03T03:28:49;101576.44;;;15.28;56.38
23574;BME280;11965;53.640;10.050;2022-09-03T03:31:21;101581.19;;;15.34;56.92
23574;BME280;11965;53.640;10.050;2022-09-03T03:33:54;101585.91;;;15.34;56.97
23574;BME280;11965;53.640;10.050;2022-09-03T03:36:22;101585.47;;;15.30;57.02
23574;BME280;11965;53.640;10.050;2022-09-03T03:38:48;101585.88;;;15.27;56.92
23574;BME280;11965;53.640;10.050;2022-09-03T03:41:19;101581.59;;;15.31;56.86
23574;BME280;11965;53.640;10.050;2022-09-03T03:43:46;101589.59;;;15.34;56.70
23574;BME280;11965;53.640;10.050;2022-09-03T03:46:12;101589.34;;;15.36;56.60
23574;BME280;11965;53.640;10.050;2022-09-03T03:48:39;101591.28;;;15.35;56.86
23574;BME280;11965;53.640;10.050;2022-09-03T03:51:07;101596.44;;;15.32;56.67
23574;BME280;11965;53.640;10.050;2022-09-03T03:53:34;101597.06;;;15.27;56.26
23574;BME280;11965;53.640;10.050;2022-09-03T03:56:03;101603.66;;;15.13;56.80
23574;BME280;11965;53.640;10.050;2022-09-03T03:58:30;101602.81;;;15.19;56.73
23574;BME280;11965;53.640;10.050;2022-09-03T04:01:07;101597.84;;;15.14;56.42
23574;BME280;11965;53.640;10.050;2022-09-03T04:03:34;101592.75;;;15.24;57.62
23574;BME280;11965;53.640;10.050;2022-09-03T04:06:01;101596.41;;;15.25;57.41
23574;BME280;11965;53.640;10.050;2022-09-03T04:08:29;101590.81;;;15.25;56.76
23574;BME280;11965;53.640;10.050;2022-09-03T04:11:00;101595.72;;;15.23;56.89
23574;BME280;11965;53.640;10.050;2022-09-03T04:13:30;101589.13;;;15.31;56.40
23574;BME280;11965;53.640;10.050;2022-09-03T04:16:16;101589.94;;;15.24;56.71
23574;BME280;11965;53.640;10.050;2022-09-03T04:18:43;101597.84;;;15.14;55.93
23574;BME280;11965;53.640;10.050;2022-09-03T04:21:11;101604.34;;;15.21;56.41
23574;BME280;11965;53.640;10.050;2022-09-03T04:23:39;101601.06;;;15.11;57.03
23574;BME280;11965;53.640;10.050;2022-09-03T04:26:06;101597.84;;;15.14;57.21
23574;BME280;11965;53.640;10.050;2022-09-03T04:28:32;101601.25;;;15.10;56.76
23574;BME280;11965;53.640;10.050;2022-09-03T04:31:06;101589.63;;;15.06;56.66
23574;BME280;11965;53.640;10.050;2022-09-03T04:33:33;101586.44;;;15.09;57.03
23574;BME280;11965;53.640;10.050;2022-09-03T04:36:05;101585.34;;;15.03;56.81
23574;BME280;11965;53.640;10.050;2022-09-03T04:38:33;101596.97;;;15.07;57.59
23574;BME280;11965;53.640;10.050;2022-09-03T04:40:59;101591.16;;;15.09;56.32
23574;BME280;11965;53.640;10.050;2022-09-03T04:43:26;101595.47;;;15.11;56.70
23574;BME280;11965;53.640;10.050;2022-09-03T04:45:55;101599.53;;;15.09;56.96
23574;BME280;11965;53.640;10.050;2022-09-03T04:48:21;101599.97;;;15.12;56.81
23574;BME280;11965;53.640;10.050;2022-09-03T04:50:47;101597.81;;;15.08;56.44
23574;BME280;11965;53.640;10.050;2022-09-03T04:53:12;101602.75;;;15.06;56.24
23574;BME280;11965;53.640;10.050;2022-09-03T04:55:38;101604.44;;;15.00;57.20
23574;BME280;11965;53.640;10.050;2022-09-03T04:58:04;101598.63;;;15.01;56.17
23574;BME280;11965;53.640;10.050;2022-09-03T05:00:32;101609.00;;;15.08;56.15
23574;BME280;11965;53.640;10.050;2022-09-03T05:03:00;101605.97;;;15.02;56.08
23574;BME280;11965;53.640;10.050;2022-09-03T05:05:26;101605.19;;;15.15;55.85
23574;BME280;11965;53.640;10.050;2022-09-03T05:07:52;101605.81;;;15.17;55.31
23574;BME280;11965;53.640;10.050;2022-09-03T05:10:17;101611.88;;;15.28;55.20
23574;BME280;11965;53.640;10.050;2022-09-03T05:12:47;101611.25;;;15.32;54.50
23574;BME280;11965;53.640;10.050;2022-09-03T05:15:14;101613.03;;;15.46;54.48
23574;BME280;11965;53.640;10.050;2022-09-03T05:17:40;101614.31;;;15.37;55.19
23574;BME280;11965;53.640;10.050;2022-09-03T05:20:06;101604.88;;;15.45;54.05
23574;BME280;11965;53.640;10.050;2022-09-03T05:22:33;101605.97;;;15.51;54.98
23574;BME280;11965;53.640;10.050;2022-09-03T05:24:59;101609.41;;;15.53;54.31
23574;BME280;11965;53.640;10.050;2022-09-03T05:27:24;101608.53;;;15.45;54.84
23574;BME280;11965;53.640;10.050;2022-09-03T05:29:50;101604.41;;;15.41;54.53
23574;BME280;11965;53.640;10.050;2022-09-03T05:32:15;101594.75;;;15.37;56.08
23574;BME280;11965;53.640;10.050;2022-09-03T05:34:42;101604.00;;;15.44;54.99
23574;BME280;11965;53.640;10.050;2022-09-03T05:37:08;101597.56;;;15.44;55.00
23574;BME280;11965;53.640;10.050;2022-09-03T05:39:34;101589.78;;;15.33;54.19
23574;BME280;11965;53.640;10.050;2022-09-03T05:41:59;101595.41;;;15.46;55.28
23574;BME280;11965;53.640;10.050;2022-09-03T05:44:25;101598.22;;;15.46;55.22
23574;BME280;11965;53.640;10.050;2022-09-03T05:46:51;101590.44;;;15.35;55.47
23574;BME280;11965;53.640;10.050;2022-09-03T05:49:17;101601.38;;;15.36;55.30
23574;BME280;11965;53.640;10.050;2022-09-03T05:51:43;101608.78;;;15.57;54.60
23574;BME280;11965;53.640;10.050;2022-09-03T05:54:09;101599.00;;;15.75;54.80
23574;BME280;11965;53.640;10.050;2022-09-03T05:56:37;101602.66;;;15.75;55.47
23574;BME280;11965;53.640;10.050;2022-09-03T05:59:05;101605.41;;;15.68;54.26
23574;BME280;11965;53.640;10.050;2022-09-03T06:01:35;101605.03;;;15.78;54.20
23574;BME280;11965;53.640;10.050;2022-09-03T06:06:28;101608.03;;;15.83;54.10
23574;BME280;11965;53.640;10.050;2022-09-03T06:09:05;101603.53;;;15.96;54.48
23574;BME280;11965;53.640;10.050;2022-09-03T06:11:35;101598.84;;;16.03;55.02
23574;BME280;11965;53.640;10.050;2022-09-03T06:14:04;101606.38;;;16.02;53.72
23574;BME280;11965;53.640;10.050;2022-09-03T06:16:31;101610.66;;;15.98;53.72
23574;BME280;11965;53.640;10.050;2022-09-03T06:18:58;101610.91;;;16.17;53.99
23574;BME280;11965;53.640;10.050;2022-09-03T06:21:23;101610.91;;;16.23;53.69
23574;BME280;11965;53.640;10.050;2022-09-03T06:23:51;101610.91;;;16.30;53.34
23574;BME280;11965;53.640;10.050;2022-09-03T06:26:17;101604.66;;;16.21;53.22
23574;BME280;11965;53.640;10.050;2022-09-03T06:28:44;101601.44;;;16.24;53.10
23574;BME280;11965;53.640;10.050;2022-09-03T06:31:15;101602.31;;;16.31;52.29
23574;BME280;11965;53.640;10.050;2022-09-03T06:33:41;101612.19;;;16.41;53.48
23574;BME280;11965;53.640;10.050;2022-09-03T06:36:09;101600.16;;;16.40;52.83
23574;BME280;11965;53.640;10.050;2022-09-03T06:38:36;101609.63;;;16.59;52.60
23574;BME280;11965;53.640;10.050;2022-09-03T06:41:23;101608.34;;;16.62;52.48
23574;BME280;11965;53.640;10.050;2022-09-03T06:43:56;101616.06;;;16.73;52.37
23574;BME280;11965;53.640;10.050;2022-09-03T06:46:34;101612.84;;;16.69;51.92
23574;BME280;11965;53.640;10.050;2022-09-03T06:49:00;101611.13;;;16.75;52.65
23574;BME280;11965;53.640;10.050;2022-09-03T06:51:28;101614.16;;;16.80;51.46
23574;BME280;11965;53.640;10.050;2022-09-03T06:53:59;101608.31;;;16.82;51.59
23574;BME280;11965;53.640;10.050;2022-09-03T06:56:25;101612.00;;;16.89;51.80
23574;BME280;11965;53.640;10.050;2022-09-03T06:58:53;101612.59;;;16.97;51.50
23574;BME280;11965;53.640;10.050;2022-09-03T07:01:24;101620.16;;;17.04;51.67
23574;BME280;11965;53.640;10.050;2022-09-03T07:04:01;101621.19;;;17.16;51.46
23574;BME280;11965;53.640;10.050;2022-09-03T07:06:33;101616.44;;;17.16;50.88
23574;BME280;11965;53.640;10.050;2022-09-03T07:09:02;101618.16;;;17.24;50.92
23574;BME280;11965;53.640;10.050;2022-09-03T07:11:29;101614.44;;;17.37;51.07
23574;BME280;11965;53.640;10.050;2022-09-03T07:13:57;101615.78;;;17.28;50.21
23574;BME280;11965;53.640;10.050;2022-09-03T07:16:34;101612.53;;;17.31;50.13
23574;BME280;11965;53.640;10.050;2022-09-03T07:19:00;101614.84;;;17.40;49.32
23574;BME280;11965;53.640;10.050;2022-09-03T07:21:29;101614.59;;;17.55;50.06
23574;BME280;11965;53.640;10.050;2022-09-03T07:23:55;101617.09;;;17.70;50.34
23574;BME280;11965;53.640;10.050;2022-09-03T07:26:27;101623.75;;;17.76;48.99
23574;BME280;11965;53.640;10.050;2022-09-03T07:28:54;101618.25;;;17.56;48.72
23574;BME280;11965;53.640;10.050;2022-09-03T07:31:25;101622.50;;;17.72;49.80
23574;BME280;11965;53.640;10.050;2022-09-03T07:33:55;101622.69;;;17.77;48.91
23574;BME280;11965;53.640;10.050;2022-09-03T07:36:23;101622.50;;;17.72;49.25
23574;BME280;11965;53.640;10.050;2022-09-03T07:38:49;101609.94;;;17.87;48.28
23574;BME280;11965;53.640;10.050;2022-09-03T07:41:16;101615.47;;;18.01;49.71
23574;BME280;11965;53.640;10.050;2022-09-03T07:43:45;101613.44;;;18.15;49.57
23574;BME280;11965;53.640;10.050;2022-09-03T07:46:17;101612.69;;;18.26;49.21
23574;BME280;11965;53.640;10.050;2022-09-03T07:48:53;101615.19;;;18.41;49.58
23574;BME280;11965;53.640;10.050;2022-09-03T07:51:21;101615.06;;;18.54;48.78
23574;BME280;11965;53.640;10.050;2022-09-03T07:53:51;101618.94;;;18.53;48.10
23574;BME280;11965;53.640;10.050;2022-09-03T07:56:17;101608.25;;;18.43;47.02
23574;BME280;11965;53.640;10.050;2022-09-03T07:58:43;101606.69;;;18.47;47.78
23574;BME280;11965;53.640;10.050;2022-09-03T08:01:11;101609.47;;;18.54;47.49
23574;BME280;11965;53.640;10.050;2022-09-03T08:03:41;101609.34;;;18.67;47.95
23574;BME280;11965;53.640;10.050;2022-09-03T08:06:07;101611.81;;;18.82;47.31
23574;BME280;11965;53.640;10.050;2022-09-03T08:08:34;101609.47;;;18.79;46.30
23574;BME280;11965;53.640;10.050;2022-09-03T08:11:05;101620.00;;;18.84;46.42
23574;BME280;11965;53.640;10.050;2022-09-03T08:13:45;101605.41;;;18.93;47.97
23574;BME280;11965;53.640;10.050;2022-09-03T08:16:16;101604.22;;;19.08;47.28
23574;BME280;11965;53.640;10.050;2022-09-03T08:18:45;101610.28;;;19.23;46.48
23574;BME280;11965;53.640;10.050;2022-09-03T08:21:14;101610.38;;;19.35;45.65
23574;BME280;11965;53.640;10.050;2022-09-03T08:23:42;101599.97;;;19.54;45.07
23574;BME280;11965;53.640;10.050;2022-09-03T08:26:08;101598.97;;;19.48;44.46
23574;BME280;11965;53.640;10.050;2022-09-03T08:28:35;101601.06;;;19.53;45.11
23574;BME280;11965;53.640;10.050;2022-09-03T08:31:09;101602.66;;;19.67;45.29
23574;BME280;11965;53.640;10.050;2022-09-03T08:33:45;101602.84;;;19.84;43.92
23574;BME280;11965;53.640;10.050;2022-09-03T08:36:14;101596.84;;;19.62;43.98
23574;BME280;11965;53.640;10.050;2022-09-03T08:38:42;101598.56;;;19.63;44.48
23574;BME280;11965;53.640;10.050;2022-09-03T08:41:11;101598.25;;;19.71;44.52
23574;BME280;11965;53.640;10.050;2022-09-03T08:46:40;101596.25;;;19.90;44.75
23574;BME280;11965;53.640;10.050;2022-09-03T08:49:12;101589.16;;;20.18;42.79
23574;BME280;11965;53.640;10.050;2022-09-03T08:51:39;101594.44;;;20.49;43.27
23574;BME280;11965;53.640;10.050;2022-09-03T08:54:07;101594.13;;;20.58;42.69
23574;BME280;11965;53.640;10.050;2022-09-03T08:56:38;101587.53;;;20.76;42.19
23574;BME280;11965;53.640;10.050;2022-09-03T08:59:05;101588.63;;;20.63;41.42
23574;BME280;11965;53.640;10.050;2022-09-03T09:04:31;101598.44;;;21.07;40.61
23574;BME280;11965;53.640;10.050;2022-09-03T09:07:10;101604.94;;;20.96;40.27
23574;BME280;11965;53.640;10.050;2022-09-03T09:09:53;101599.13;;;21.26;40.59
23574;BME280;11965;53.640;10.050;2022-09-03T09:20:24;101586.94;;;21.61;39.73
23574;BME280;11965;53.640;10.050;2022-09-03T09:23:00;101582.44;;;21.36;39.29
23574;BME280;11965;53.640;10.050;2022-09-03T09:25:28;101574.81;;;21.49;39.89
23574;BME280;11965;53.640;10.050;2022-09-03T09:28:01;101581.94;;;21.51;40.25
23574;BME280;11965;53.640;10.050;2022-09-03T09:30:29;101580.28;;;21.67;39.29
23574;BME280;11965;53.640;10.050;2022-09-03T09:32:55;101597.03;;;21.45;37.82
23574;BME280;11965;53.640;10.050;2022-09-03T09:35:22;101590.66;;;21.38;38.83
23574;BME280;11965;53.640;10.050;2022-09-03T09:37:55;101579.38;;;21.38;39.04
23574;BME280;11965;53.640;10.050;2022-09-03T09:40:37;101589.81;;;21.37;37.67
23574;BME280;11965;53.640;10.050;2022-09-03T09:43:16;101580.97;;;21.46;37.94
23574;BME280;11965;53.640;10.050;2022-09-03T09:45:48;101590.03;;;21.48;37.03
23574;BME280;11965;53.640;10.050;2022-09-03T09:48:28;101575.94;;;21.48;38.13
23574;BME280;11965;53.640;10.050;2022-09-03T09:51:11;101581.75;;;21.70;36.95
23574;BME280;11965;53.640;10.050;2022-09-03T09:53:39;101572.66;;;21.68;36.99
23574;BME280;11965;53.640;10.050;2022-09-03T09:56:05;101566.78;;;21.98;36.90
23574;BME280;11965;53.640;10.050;2022-09-03T09:58:33;101565.06;;;21.97;36.73
23574;BME280;11965;53.640;10.050;2022-09-03T10:03:30;101558.38;;;21.57;37.19
23574;BME280;11965;53.640;10.050;2022-09-03T10:06:07;101565.41;;;21.43;36.97
23574;BME280;11965;53.640;10.050;2022-09-03T10:09:03;101552.03;;;21.79;36.57
23574;BME280;11965;53.640;10.050;2022-09-03T10:11:31;101553.75;;;21.97;34.81
23574;BME280;11965;53.640;10.050;2022-09-03T10:13:58;101555.00;;;22.18;36.21
23574;BME280;11965;53.640;10.050;2022-09-03T10:16:32;101557.69;;;22.41;35.94
23574;BME280;11965;53.640;10.050;2022-09-03T10:19:10;101553.50;;;22.44;34.19
23574;BME280;11965;53.640;10.050;2022-09-03T10:24:38;101534.41;;;22.34;34.38
23574;BME280;11965;53.640;10.050;2022-09-03T10:27:08;101541.34;;;22.26;34.02
23574;BME280;11965;53.640;10.050;2022-09-03T10:29:37;101538.78;;;22.42;34.63
23574;BME280;11965;53.640;10.050;2022-09-03T10:32:30;101541.00;;;22.40;33.61
23574;BME280;11965;53.640;10.050;2022-09-03T10:35:28;101532.41;;;22.18;33.46
23574;BME280;11965;53.640;10.050;2022-09-03T10:40:37;101537.44;;;22.16;33.13
23574;BME280;11965;53.640;10.050;2022-09-03T10:46:02;101534.16;;;22.36;32.44
23574;BME280;11965;53.640;10.050;2022-09-03T10:51:20;101526.06;;;22.78;31.88
23574;BME280;11965;53.640;10.050;2022-09-03T10:54:08;101520.06;;;22.75;31.61
23574;BME280;11965;53.640;10.050;2022-09-03T10:59:30;101518.69;;;22.77;31.90
23574;BME280;11965;53.640;10.050;2022-09-03T11:02:12;101516.34;;;23.08;32.18
23574;BME280;11965;53.640;10.050;2022-09-03T11:05:13;101511.03;;;22.94;30.49
23574;BME280;11965;53.640;10.050;2022-09-03T11:08:00;101510.75;;;22.74;31.77
23574;BME280;11965;53.640;10.050;2022-09-03T11:10:29;101507.28;;;22.33;32.22
23574;BME280;11965;53.640;10.050;2022-09-03T11:16:01;101517.16;;;22.86;33.27
23574;BME280;11965;53.640;10.050;2022-09-03T11:21:01;101510.91;;;22.67;32.30
23574;BME280;11965;53.640;10.050;2022-09-03T11:23:32;101505.69;;;22.59;32.58
23574;BME280;11965;53.640;10.050;2022-09-03T11:26:07;101502.31;;;22.57;32.89
23574;BME280;11965;53.640;10.050;2022-09-03T11:28:42;101499.91;;;22.88;32.28
23574;BME280;11965;53.640;10.050;2022-09-03T11:34:48;101502.00;;;23.14;30.89
23574;BME280;11965;53.640;10.050;2022-09-03T11:37:25;101502.19;;;23.30;30.13
23574;BME280;11965;53.640;10.050;2022-09-03T11:40:13;101506.41;;;22.88;30.69
23574;BME280;11965;53.640;10.050;2022-09-03T11:42:44;101496.47;;;22.64;30.97
23574;BME280;11965;53.640;10.050;2022-09-03T11:47:56;101484.34;;;22.46;30.72
23574;BME280;11965;53.640;10.050;2022-09-03T11:50:26;101484.63;;;22.67;31.57
23574;BME280;11965;53.640;10.050;2022-09-03T11:52:54;101489.72;;;22.65;30.47
23574;BME280;11965;53.640;10.050;2022-09-03T11:55:32;101488.53;;;22.44;30.68
23574;BME280;11965;53.640;10.050;2022-09-03T11:58:16;101497.69;;;22.00;31.25
23574;BME280;11965;53.640;10.050;2022-09-03T12:00:45;101489.97;;;21.96;30.64
23574;BME280;11965;53.640;10.050;2022-09-03T12:03:13;101482.69;;;22.00;32.31
23574;BME280;11965;53.640;10.050;2022-09-03T12:08:42;101471.94;;;22.69;30.79
23574;BME280;11965;53.640;10.050;2022-09-03T12:22:12;101483.31;;;22.36;29.64
23574;BME280;11965;53.640;10.050;2022-09-03T12:24:38;101471.41;;;22.50;31.00
23574;BME280;11965;53.640;10.050;2022-09-03T12:27:04;101474.41;;;22.44;29.34
23574;BME280;11965;53.640;10.050;2022-09-03T12:29:30;101472.59;;;22.55;29.48
23574;BME280;11965;53.640;10.050;2022-09-03T12:32:05;101470.66;;;22.77;30.02
23574;BME280;11965;53.640;10.050;2022-09-03T12:34:31;101474.19;;;22.67;30.67
23574;BME280;11965;53.640;10.050;2022-09-03T12:36:57;101473.03;;;22.85;30.50
23574;BME280;11965;53.640;10.050;2022-09-03T12:39:25;101474.28;;;22.94;29.18
23574;BME280;11965;53.640;10.050;2022-09-03T12:44:27;101460.47;;;22.76;30.04
23574;BME280;11965;53.640;10.050;2022-09-03T12:47:10;101463.47;;;22.69;29.52
23574;BME280;11965;53.640;10.050;2022-09-03T12:49:40;101462.63;;;22.69;30.37
23574;BME280;11965;53.640;10.050;2022-09-03T12:52:26;101459.50;;;22.48;30.19
23574;BME280;11965;53.640;10.050;2022-09-03T12:54:57;101472.72;;;22.26;30.01
23574;BME280;11965;53.640;10.050;2022-09-03T12:57:42;101448.63;;;22.57;30.62
23574;BME280;11965;53.640;10.050;2022-09-03T13:00:12;101445.06;;;22.67;30.22
23574;BME280;11965;53.640;10.050;2022-09-03T13:02:57;101452.44;;;22.68;30.20
23574;BME280;11965;53.640;10.050;2022-09-03T13:05:32;101441.16;;;22.90;29.90
23574;BME280;11965;53.640;10.050;2022-09-03T13:08:00;101443.03;;;23.01;30.30
23574;BME280;11965;53.640;10.050;2022-09-03T13:10:35;101450.47;;;22.90;29.51
23574;BME280;11965;53.640;10.050;2022-09-03T13:13:22;101444.16;;;22.61;29.56
23574;BME280;11965;53.640;10.050;2022-09-03T13:19:18;101447.34;;;22.48;29.46
23574;BME280;11965;53.640;10.050;2022-09-03T13:27:35;101435.91;;;22.99;29.29
23574;BME280;11965;53.640;10.050;2022-09-03T13:30:12;101445.94;;;23.33;29.15
23574;BME280;11965;53.640;10.050;2022-09-03T13:35:48;101441.97;;;23.56;27.92
23574;BME280;11965;53.640;10.050;2022-09-03T13:38:32;101441.72;;;23.63;27.96
23574;BME280;11965;53.640;10.050;2022-09-03T13:41:29;101434.84;;;23.54;28.57
23574;BME280;11965;53.640;10.050;2022-09-03T13:44:39;101444.31;;;23.37;29.09
23574;BME280;11965;53.640;10.050;2022-09-03T13:47:27;101444.22;;;23.05;28.79
23574;BME280;11965;53.640;10.050;2022-09-03T13:55:25;101442.78;;;22.64;29.38
23574;BME280;11965;53.640;10.050;2022-09-03T13:58:00;101438.50;;;22.61;29.99
23574;BME280;11965;53.640;10.050;2022-09-03T14:00:42;101439.78;;;22.70;29.62
23574;BME280;11965;53.640;10.050;2022-09-03T14:03:37;101438.66;;;22.71;29.34
23574;BME280;11965;53.640;10.050;2022-09-03T14:06:17;101428.53;;;22.76;29.14
23574;BME280;11965;53.640;10.050;2022-09-03T14:09:05;101428.41;;;22.87;30.42
23574;BME280;11965;53.640;10.050;2022-09-03T14:12:03;101440.78;;;22.64;29.71
23574;BME280;11965;53.640;10.050;2022-09-03T14:14:59;101431.63;;;22.74;30.20
23574;BME280;11965;53.640;10.050;2022-09-03T14:18:11;101437.13;;;22.64;29.89
23574;BME280;11965;53.640;10.050;2022-09-03T14:23:03;101428.69;;;22.47;29.75
23574;BME280;11965;53.640;10.050;2022-09-03T14:25:30;101419.91;;;22.65;28.81
23574;BME280;11965;53.640;10.050;2022-09-03T14:28:14;101414.78;;;22.84;28.72
23574;BME280;11965;53.640;10.050;2022-09-03T14:30:53;101413.91;;;23.01;28.45
23574;BME280;11965;53.640;10.050;2022-09-03T14:33:31;101424.28;;;23.17;29.03
23574;BME280;11965;53.640;10.050;2022-09-03T14:36:34;101424.81;;;23.14;28.46
23574;BME280;11965;53.640;10.050;2022-09-03T14:50:50;101433.19;;;22.65;28.64
23574;BME280;11965;53.640;10.050;2022-09-03T14:59:02;101418.00;;;22.93;29.12
23574;BME280;11965;53.640;10.050;2022-09-03T15:01:33;101416.97;;;22.99;28.01
23574;BME280;11965;53.640;10.050;2022-09-03T15:07:15;101412.97;;;23.17;28.35
23574;BME280;11965;53.640;10.050;2022-09-03T15:10:11;101424.00;;;23.19;27.81
23574;BME280;11965;53.640;10.050;2022-09-03T15:12:49;101427.97;;;23.45;28.53
23574;BME280;11965;53.640;10.050;2022-09-03T15:23:38;101417.28;;;23.25;27.64
23574;BME280;11965;53.640;10.050;2022-09-03T15:26:30;101411.94;;;23.28;28.27
23574;BME280;11965;53.640;10.050;2022-09-03T15:37:13;101414.72;;;23.23;28.12
23574;BME280;11965;53.640;10.050;2022-09-03T15:39:44;101426.84;;;23.19;27.84
23574;BME280;11965;53.640;10.050;2022-09-03T15:42:25;101419.28;;;23.02;27.86
23574;BME280;11965;53.640;10.050;2022-09-03T15:44:55;101412.16;;;23.22;28.44
23574;BME280;11965;53.640;10.050;2022-09-03T15:50:03;101423.06;;;22.91;27.76